• Join FlightAware (Why Join?)
  • Login
  • US Flag 
08:33AM EDT


 

Airport Tracker/Info


-or-


 

Live Flight TrackerFlight Track Log ✈ AWE3418 ✈ 27-Oct-2013 ✈ KCMH - KPHL

Flight Track Log - Related Links

Times and Time Zones

All times are in EDT time to prevent confusion due to time zone crossing. See the AWE3418 flight status page for this flight to view local times or setup timezone preferences in your user account.

Time Position Orientation Groundspeed Altitude Reporting Facility
EDT Latitude Longitude Course Direction KTS MPH feet Rate Location/Type
04:07PM 40.0031 -82.9211 252° West 156 180 1,700  Level Indianapolis Center
04:07PM 39.9997 -82.9342 252° West 145 167 2,300 2,160 Climbing Indianapolis Center
04:08PM 39.9867 -83.0058 257° West 221 254 4,600 2,520 Climbing Indianapolis Center
04:09PM 39.9475 -83.0336 209° Southwest 219 252 7,200 2,340 Climbing Indianapolis Center
04:10PM 39.9225 -82.9375 109° East 295 339 9,200 1,740 Climbing Indianapolis Center
04:11PM 39.9281 -82.8186 86° East 332 382 10,900 1,680 Climbing Indianapolis Center
04:12PM 39.9497 -82.6800 78° East 386 444 12,700 2,160 Climbing Indianapolis Center
04:13PM 39.9781 -82.5031 78° East 413 475 15,400 2,220 Climbing Indianapolis Center
04:14PM 40.0003 -82.3522 79° East 423 487 17,300 1,620 Climbing Indianapolis Center
04:15PM 40.0247 -82.1950 78° East 438 504 18,800 1,680 Climbing Indianapolis Center
04:16PM 40.0503 -82.0297 79° East 460 529 20,900 1,680 Climbing Indianapolis Center
04:17PM 40.0742 -81.8653 79° East 463 533 22,400 1,500 Climbing Indianapolis Center
04:18PM 40.1008 -81.6839 79° East 474 545 24,000 1,260 Climbing Indianapolis Center
04:19PM 40.1269 -81.5081 79° East 486 559 25,100 1,080 Climbing Indianapolis Center
04:20PM 40.1522 -81.3306 79° East 493 567 26,300 1,140 Climbing Indianapolis Center
04:21PM 40.1844 -81.1217 79° East 500 575 27,500 1,020 Climbing Indianapolis Center
04:22PM 40.2261 -80.9750 70° East 503 579 28,300 720 Climbing Cleveland Center
04:23PM 40.2739 -80.8028 70° East 511 588 29,000 660 Climbing Cleveland Center
04:24PM 40.3206 -80.6275 71° East 515 593 29,700 600 Climbing Cleveland Center
04:26PM 40.3572 -80.2556 83° East 508 585 31,000 360 Climbing Cleveland Center
04:27PM 40.3514 -80.0367 92° East 509 586 31,000  Level Cleveland Center
04:28PM 40.3481 -79.8833 92° East 502 578 31,000  Level Cleveland Center
04:29PM 40.3425 -79.6628 92° East 506 582 31,000  Level Cleveland Center
04:30PM 40.3369 -79.4797 92° East 505 581 31,000  Level Cleveland Center
04:31PM 40.3317 -79.2961 92° East 505 581 31,000 -480 Level Cleveland Center
04:32PM 40.3250 -79.0897 92° East 506 582 30,100 -840 Descending Cleveland Center
04:33PM 40.3189 -78.9067 92° East 508 585 29,300 -840 Descending Cleveland Center
04:34PM 40.3156 -78.7203 91° East 515 593 28,400 -840 Descending Cleveland Center
04:36PM 40.3167 -78.5356 89° East 514 592 27,600 -900 Descending Cleveland Center
04:37PM 40.3158 -78.3144 90° East 514 592 26,600 -960 Descending Cleveland Center
04:38PM 40.3142 -78.1308 91° East 512 589 25,700 -780 Descending Cleveland Center
04:39PM 40.3131 -77.9481 90° East 509 586 25,000 -1,020 Descending Cleveland Center
04:40PM 40.3108 -77.7614 91° East 513 590 23,600 -1,440 Descending New York Center
04:41PM 40.3108 -77.5844 90° East 502 578 22,100 -1,500 Descending New York Center
04:42PM 40.3064 -77.4042 92° East 502 578 20,600 -1,560 Descending New York Center
04:43PM 40.3044 -77.2136 91° East 485 558 19,000 -1,320 Descending New York Center
04:44PM 40.2947 -77.0492 94° East 462 532 18,000 -720 Descending New York Center
04:45PM 40.2594 -76.8828 105° East 462 532 17,600 -720 Descending New York Center
04:46PM 40.2239 -76.7247 106° East 462 532 16,600 -960 Descending New York Center
04:47PM 40.1856 -76.5719 108° East 447 514 15,700 -1,200 Descending New York Center
04:48PM 40.1631 -76.4342 102° East 437 503 14,300 -1,800 Descending New York Center
04:49PM 40.1439 -76.2669 98° East 425 489 12,200 -1,200 Descending New York Center
04:50PM 40.1256 -76.1189 99° East 417 480 11,900 -600 Descending New York Center
04:51PM 40.1108 -75.9847 98° East 387 445 11,100 -1,200 Descending New York Center
04:52PM 40.0950 -75.8694 100° East 349 402 9,500 -1,560 Descending New York Center
04:53PM 40.0828 -75.7656 99° East 324 373 8,000 -780 Descending New York Center
04:54PM 40.0750 -75.6511 95° East 295 339 8,000  Level New York Center
04:55PM 40.0708 -75.5531 93° East 281 323 8,000  Level New York Center
04:56PM 40.0664 -75.4525 93° East 276 318 8,000  Level New York Center
04:57PM 40.0622 -75.3517 93° East 276 318 8,000 -540 Level New York Center
04:58PM 40.0575 -75.2539 94° East 276 318 7,000 -480 Descending New York Center
04:59PM 40.0000 -75.1833 137° Southeast 255 293 7,000 -420 Level Philadelphia TRACON
05:00PM 39.9833 -75.1000 105° East 226 260 6,100 -1,020 Descending Philadelphia TRACON
05:01PM 40.0000 -75.0167 75° East 211 243 5,000 -600 Descending Philadelphia TRACON
05:02PM 40.0167 -74.9500 72° East 214 246 5,000  Level Philadelphia TRACON
05:03PM 40.0333 -74.8667 75° East 217 250 5,000  Level Philadelphia TRACON
05:04PM 40.0083 -74.8278 130° Southeast 196 226 5,000 -360 Level New York Center
05:06PM 39.9333 -74.9167 222° Southwest 165 190 4,000 -540 Descending Philadelphia TRACON
05:07PM 39.9333 -74.9833 270° West 164 189 3,400 -720 Descending Philadelphia TRACON
05:08PM 39.9167 -75.0333 247° West 162 186 2,600 -660 Descending Philadelphia TRACON
05:09PM 39.9000 -75.0833 247° West 158 182 2,100 -600 Descending Philadelphia TRACON
05:10PM 39.9000 -75.1500 270° West 145 167 1,400 -720 Descending Philadelphia TRACON
05:11PM 39.8833 -75.1833 237° Southwest 129 148 700 -720 Descending Philadelphia TRACON
05:13PM 39.8667 -75.2333 247° West  Level FlightAware Approximate
05:20PM 39.8722 -75.2409 247° West  Level Estimated